Nearby METAR Reports

 

KMLE - Omaha/Millard, Nebraska, USA
Distance from station: NE 1mi, 2km
Updated: Thu, 05-Dec-2019 5:15pm CST
Clear
Clear
 Wind from NW
Wind: NW 6 mph , 9 km/h
Temperature: 52°F , 11°C
Dew Point: 37°F , 3°C
Humidity: 58%
Barometer: 29.94 inHg , 1013.9 hPa
Clouds: Clear
Visibility: 10 miles , 16 km
2019/12/05 23:15 KMLE 052315Z AUTO 32005KT 10SM CLR 11/03 A2994 RMK AO2 T01100028
KOFF - Offutt Afb/Belle, Nebraska, USA
Distance from station: ESE 12mi, 20km
Updated: Thu, 05-Dec-2019 3:56pm CST
NOT Current
Mostly cloudy
Mostly cloudy
 Wind from calm
Wind: Calm
Temperature: 55°F , 13°C
Dew Point: 36°F , 2°C
Humidity: 47%
Barometer: 29.89 inHg , 1012.2 hPa
Clouds: Mostly cloudy
Visibility: 10 miles , 16 km
Cloud details: Partly cloudy 20000 ft
Mostly cloudy 25000 ft
2019/12/05 21:56 KOFF 052156Z 00000KT 10SM SCT200 BKN250 13/02 A2989 RMK AO2A SLP128 RVRNO $
 
KOMA - Omaha/Eppley, Nebraska, USA
Distance from station: NE 15mi, 24km
Updated: Thu, 05-Dec-2019 4:52pm CST
Overcast
Overcast
 Wind from N
Wind: N 8 mph , 13 km/h
Temperature: 48°F , 9°C
Wind Chill: 44°F , 7°C
Dew Point: 39°F , 4°C
Humidity: 71%
Barometer: 29.92 inHg , 1013.2 hPa
Clouds: Overcast
Visibility: 10 miles , 16 km
Cloud details: Partly cloudy 16000 ft
Mostly cloudy 22000 ft
Overcast 27000 ft
2019/12/05 22:52 KOMA 052252Z 36007KT 10SM SCT160 BKN220 OVC270 09/04 A2992 RMK AO2 SLP136 T00890044
KBTA - Blair Muni, Nebraska, USA
Distance from station: N 16mi, 25km
Updated: Thu, 05-Dec-2019 5:15pm CST
Clear
Clear
 Wind from NW
Wind: NW 7 mph , 11 km/h
Temperature: 48°F , 9°C
Wind Chill: 45°F , 7°C
Dew Point: 37°F , 3°C
Humidity: 66%
Barometer: 29.93 inHg , 1013.5 hPa
Clouds: Clear
Visibility: 10 miles , 16 km
2019/12/05 23:15 KBTA 052315Z AUTO 31006KT 10SM CLR 09/03 A2993 RMK AO2 T00920026
 
KCBF - Council Bluffs, Iowa, USA
Distance from station: ENE 20mi, 32km
Updated: Thu, 05-Dec-2019 5:15pm CST
Clear
Clear
 Wind from N
Wind: N 3 mph , 6 km/h
Temperature: 50°F , 10°C
Dew Point: 36°F , 2°C
Humidity: 58%
Barometer: 29.91 inHg , 1012.9 hPa
Clouds: Clear
Visibility: 10 miles , 16 km
2019/12/05 23:15 KCBF 052315Z AUTO 36003KT 10SM CLR 10/02 A2991 RMK AO2
KPMV - Plattsmouth Muni, Nebraska, USA
Distance from station: SE 20mi, 32km
Updated: Thu, 05-Dec-2019 5:15pm CST
Clear
Clear
 Wind from calm
Wind: Calm
Temperature: 52°F , 11°C
Dew Point: 39°F , 4°C
Humidity: 62%
Barometer: 29.92 inHg , 1013.2 hPa
Clouds: Clear
Visibility: 10 miles , 16 km
2019/12/05 23:15 KPMV 052315Z AUTO 00000KT 10SM CLR 11/04 A2992 RMK AO2 T01070038
 
KAHQ - Wahoo, Nebraska, USA
Distance from station: W 25mi, 40km
Updated: Thu, 05-Dec-2019 5:15pm CST
Clear
Clear
 Wind from NNW
Wind: NNW 14 mph , 22 km/h
Temperature: 46°F , 8°C
Wind Chill: 40°F , 4°C
Dew Point: 36°F , 2°C
Humidity: 66%
Barometer: 29.96 inHg , 1014.6 hPa
Clouds: Clear
Visibility: 10 miles , 16 km
2019/12/05 23:15 KAHQ 052315Z AUTO 33012KT 10SM CLR 08/02 A2996 RMK AO2 T00750023
KFET - Fremont Muni Arp, Nebraska, USA
Distance from station: NW 27mi, 43km
Updated: Thu, 05-Dec-2019 5:15pm CST
Clear
Clear
 Wind from NW
Wind: NW 16 mph , 26 km/h, Gust: 21 mph , 33 km/h
Temperature: 45°F , 7°C
Wind Chill: 38°F , 3°C
Dew Point: 37°F , 3°C
Humidity: 76%
Barometer: 29.96 inHg , 1014.6 hPa
Clouds: Clear
Visibility: 10 miles , 16 km
2019/12/05 23:15 KFET 052315Z AUTO 32014G18KT 10SM CLR 07/03 A2996 RMK AO2 T00730032
 
KTQE - Tekamah, Nebraska, USA
Distance from station: N 40mi, 64km
Updated: Thu, 05-Dec-2019 4:54pm CST
Clear
Clear
 Wind from NNW
Wind: NNW 12 mph , 19 km/h
Temperature: 46°F , 8°C
Wind Chill: 40°F , 4°C
Dew Point: 37°F , 3°C
Humidity: 71%
Barometer: 29.94 inHg , 1013.9 hPa
Clouds: Clear
Visibility: 10 miles , 16 km
2019/12/05 22:54 KTQE 052254Z AUTO 34010KT 10SM CLR 08/03 A2994 RMK AO2 SLP143 T00780033
KLNK - Lincoln, Nebraska, USA
Distance from station: SW 41mi, 65km
Updated: Thu, 05-Dec-2019 4:54pm CST
Clear
Clear
 Wind from NW
Wind: NW 7 mph , 11 km/h
Temperature: 52°F , 11°C
Dew Point: 37°F , 3°C
Humidity: 58%
Barometer: 29.94 inHg , 1013.9 hPa
Clouds: Clear
Visibility: 10 miles , 16 km
2019/12/05 22:54 KLNK 052254Z 32006KT 10SM CLR 11/03 A2994 RMK AO2 SLP145 T01110028
 
KAFK - Nebraska City, Nebraska, USA
Distance from station: SSE 43mi, 70km
Updated: Thu, 05-Dec-2019 5:15pm CST
Clear
Clear
 Wind from calm
Wind: Calm
Temperature: 52°F , 11°C
Dew Point: 37°F , 3°C
Humidity: 58%
Barometer: 29.91 inHg , 1012.9 hPa
Clouds: Clear
Visibility: 10 miles , 16 km
2019/12/05 23:15 KAFK 052315Z AUTO 00000KT 10SM CLR 11/03 A2991 RMK AO2 T01130029
KRDK - Red Oak, Iowa, USA
Distance from station: ESE 47mi, 75km
Updated: Thu, 05-Dec-2019 5:15pm CST
Overcast
Overcast
 Wind from NNW
Wind: NNW 8 mph , 13 km/h
Temperature: 48°F , 9°C
Wind Chill: 44°F , 7°C
Dew Point: 36°F , 2°C
Humidity: 62%
Barometer: 29.92 inHg , 1013.2 hPa
Clouds: Overcast
Cloud details: Overcast 21000 ft
2019/12/05 23:15 KRDK 052315Z AUTO 34007KT OVC210 09/02 A2992 RMK AO2
 
KSDA - Shenandoah Muni, Iowa, USA
Distance from station: SE 48mi, 77km
Updated: Thu, 05-Dec-2019 5:15pm CST
Clear
Clear
 Wind from calm
Wind: Calm
Temperature: 50°F , 10°C
Dew Point: 36°F , 2°C
Humidity: 58%
Barometer: 29.90 inHg , 1012.5 hPa
Clouds: Clear
Visibility: 10 miles , 16 km
2019/12/05 23:15 KSDA 052315Z AUTO 00000KT 10SM CLR 10/02 A2990 RMK AO2
KHNR - Harlan Muni, Iowa, USA
Distance from station: NE 49mi, 80km
Updated: Thu, 05-Dec-2019 5:15pm CST
Clear
Clear
 Wind from WNW
Wind: WNW 9 mph , 15 km/h
Temperature: 41°F , 5°C
Wind Chill: 35°F , 2°C
Dew Point: 36°F , 2°C
Humidity: 81%
Barometer: 29.92 inHg , 1013.2 hPa
Clouds: Clear
Visibility: 10 miles , 16 km
2019/12/05 23:15 KHNR 052315Z AUTO 30008KT 10SM CLR 05/02 A2992 RMK AO2